Time,TemperatureF,DewpointF,PressureIn,WindDirection,WindDirectionDegrees,WindSpeedMPH,WindSpeedGustMPH,Humidity,HourlyPrecipIn,Conditions,Clouds,dailyrainin,SoftwareType,DateUTC
2013-03-06 00:00:00,29.3,28.3,30.08,NE,55,0.0,0.0,96,0.00,,OVC055,0.00,VWS V12.08,2013-03-06 05:00:00,
2013-03-06 00:05:00,29.3,28.3,30.08,NE,55,0.0,0.0,96,0.00,,OVC055,0.00,VWS V12.08,2013-03-06 05:05:00,
2013-03-06 00:10:00,29.3,28.6,30.08,NE,55,0.0,0.0,97,0.00,,OVC055,0.00,VWS V12.08,2013-03-06 05:10:00,
2013-03-06 00:15:00,29.3,28.6,30.08,NE,55,0.0,0.0,97,0.00,,OVC055,0.00,VWS V12.08,2013-03-06 05:15:00,
2013-03-06 00:20:00,29.3,28.6,30.08,NE,55,0.0,0.0,97,0.00,,OVC055,0.00,VWS V12.08,2013-03-06 05:20:00,
2013-03-06 00:25:00,29.3,28.6,30.08,NE,55,0.0,0.0,97,0.00,,OVC055,0.00,VWS V12.08,2013-03-06 05:25:00,
2013-03-06 00:30:00,29.3,28.6,30.08,NE,55,0.0,0.0,97,0.00,,OVC055,0.00,VWS V12.08,2013-03-06 05:30:00,
2013-03-06 00:35:00,29.3,28.6,30.08,NE,55,0.0,0.0,97,0.00,,OVC055,0.00,VWS V12.08,2013-03-06 05:35:00,
2013-03-06 00:40:00,29.3,28.6,30.08,NE,55,0.0,0.0,97,0.00,,OVC055,0.00,VWS V12.08,2013-03-06 05:40:00,
2013-03-06 00:45:00,29.3,28.6,30.08,NE,55,0.0,0.0,97,0.00,,OVC055,0.00,VWS V12.08,2013-03-06 05:45:00,
2013-03-06 00:50:00,29.3,28.3,30.08,NE,55,0.0,0.0,96,0.00,,OVC055,0.00,VWS V12.08,2013-03-06 05:50:00,
2013-03-06 00:55:00,29.3,28.3,30.08,NE,55,0.0,0.0,96,0.00,,OVC055,0.00,VWS V12.08,2013-03-06 05:55:00,
2013-03-06 01:00:00,29.2,28.2,30.09,NE,55,0.0,0.0,96,0.00,,OVC055,0.00,VWS V12.08,2013-03-06 06:00:00,
2013-03-06 01:05:00,29.2,28.2,30.09,NE,55,0.0,0.0,96,0.00,,OVC055,0.00,VWS V12.08,2013-03-06 06:05:00,
2013-03-06 01:10:00,29.0,28.0,30.09,NE,55,0.0,0.0,96,0.00,,OVC055,0.00,VWS V12.08,2013-03-06 06:10:00,
2013-03-06 01:15:00,29.0,28.0,30.09,NE,55,0.0,0.0,96,0.00,,OVC055,0.00,VWS V12.08,2013-03-06 06:15:00,
2013-03-06 01:20:00,28.9,27.9,30.09,NE,55,0.0,0.0,96,0.00,,OVC055,0.00,VWS V12.08,2013-03-06 06:20:00,
2013-03-06 01:25:00,28.7,27.7,30.09,NE,55,0.0,0.0,96,0.00,,OVC055,0.00,VWS V12.08,2013-03-06 06:25:00,
2013-03-06 01:30:00,28.7,28.0,30.09,NE,55,0.0,0.0,97,0.00,,OVC055,0.00,VWS V12.08,2013-03-06 06:30:00,
2013-03-06 01:35:00,28.6,27.9,30.09,NE,55,0.0,0.0,97,0.00,,OVC055,0.00,VWS V12.08,2013-03-06 06:35:00,
2013-03-06 01:40:00,28.6,27.9,30.09,NE,55,0.0,0.0,97,0.00,,OVC055,0.00,VWS V12.08,2013-03-06 06:40:00,
2013-03-06 01:45:00,28.6,27.9,30.09,NE,55,0.0,0.0,97,0.00,,OVC055,0.00,VWS V12.08,2013-03-06 06:45:00,
2013-03-06 01:50:00,28.6,27.9,30.09,NE,55,0.0,1.0,97,0.00,,OVC055,0.00,VWS V12.08,2013-03-06 06:50:00,
2013-03-06 01:56:00,28.6,27.9,30.09,ENE,62,1.0,2.0,97,0.00,,OVC055,0.00,VWS V12.08,2013-03-06 06:56:00,
2013-03-06 02:01:00,28.6,28.1,30.09,ENE,62,0.0,0.0,98,0.00,,OVC055,0.00,VWS V12.08,2013-03-06 07:01:00,
2013-03-06 02:06:00,28.6,28.1,30.09,ENE,62,0.0,0.0,98,0.00,,OVC055,0.00,VWS V12.08,2013-03-06 07:06:00,
2013-03-06 02:11:00,28.7,28.2,30.09,ENE,62,0.0,0.0,98,0.00,,OVC055,0.00,VWS V12.08,2013-03-06 07:11:00,
2013-03-06 02:16:00,28.7,28.2,30.09,ENE,62,0.0,0.0,98,0.00,,OVC055,0.00,VWS V12.08,2013-03-06 07:16:00,
2013-03-06 02:21:00,28.7,28.2,30.09,SE,138,0.0,1.0,98,0.00,,OVC055,0.00,VWS V12.08,2013-03-06 07:21:00,
2013-03-06 02:26:00,28.7,28.2,30.09,SE,138,0.0,0.0,98,0.00,,OVC055,0.00,VWS V12.08,2013-03-06 07:26:00,
2013-03-06 02:31:00,28.7,28.2,30.09,SE,138,0.0,0.0,98,0.00,,OVC055,0.00,VWS V12.08,2013-03-06 07:31:00,
2013-03-06 02:36:00,28.7,28.2,30.09,SE,138,0.0,0.0,98,0.00,,OVC055,0.00,VWS V12.08,2013-03-06 07:36:00,
2013-03-06 02:41:00,28.7,28.2,30.09,SE,138,0.0,0.0,98,0.00,,OVC055,0.00,VWS V12.08,2013-03-06 07:41:00,
2013-03-06 02:46:00,28.7,28.2,30.09,SE,138,0.0,0.0,98,0.00,,OVC055,0.00,VWS V12.08,2013-03-06 07:46:00,
2013-03-06 02:51:00,28.7,28.2,30.09,SE,138,0.0,0.0,98,0.00,,OVC055,0.00,VWS V12.08,2013-03-06 07:51:00,
2013-03-06 02:56:00,28.6,28.1,30.09,SE,138,0.0,0.0,98,0.00,,OVC055,0.00,VWS V12.08,2013-03-06 07:56:00,
2013-03-06 03:01:00,28.6,28.1,30.09,SE,138,0.0,0.0,98,0.00,,OVC055,0.00,VWS V12.08,2013-03-06 08:01:00,
2013-03-06 03:06:00,28.6,28.1,30.09,SE,138,0.0,0.0,98,0.00,,OVC055,0.00,VWS V12.08,2013-03-06 08:06:00,
2013-03-06 03:11:00,28.6,28.1,30.09,SE,138,0.0,0.0,98,0.00,,OVC055,0.00,VWS V12.08,2013-03-06 08:11:00,
2013-03-06 03:16:00,28.4,27.9,30.09,SE,138,0.0,0.0,98,0.00,,OVC055,0.00,VWS V12.08,2013-03-06 08:16:00,
2013-03-06 03:21:00,28.4,27.9,30.09,SE,138,0.0,0.0,98,0.00,,OVC055,0.00,VWS V12.08,2013-03-06 08:21:00,
2013-03-06 03:26:00,28.6,28.1,30.09,SE,138,0.0,0.0,98,0.00,,OVC055,0.00,VWS V12.08,2013-03-06 08:26:00,
2013-03-06 03:31:00,28.6,28.1,30.09,SE,138,0.0,0.0,98,0.00,,OVC055,0.00,VWS V12.08,2013-03-06 08:31:00,
2013-03-06 03:36:00,28.7,28.5,30.09,NE,37,1.0,2.0,99,0.00,,OVC055,0.00,VWS V12.08,2013-03-06 08:36:00,
2013-03-06 03:41:00,29.0,28.8,30.09,NE,40,1.0,2.0,99,0.00,,OVC055,0.00,VWS V12.08,2013-03-06 08:41:00,
2013-03-06 03:46:00,29.6,29.4,30.09,NE,51,0.0,2.0,99,0.00,,OVC055,0.00,VWS V12.08,2013-03-06 08:46:00,
2013-03-06 03:51:00,29.9,29.4,30.09,NE,51,0.0,0.0,98,0.00,,OVC055,0.00,VWS V12.08,2013-03-06 08:51:00,
2013-03-06 03:56:00,30.1,29.4,30.09,NE,52,0.0,0.0,97,0.00,,OVC055,0.00,VWS V12.08,2013-03-06 08:56:00,
2013-03-06 04:01:00,30.2,29.2,30.09,NE,51,0.0,0.0,96,0.00,,OVC055,0.00,VWS V12.08,2013-03-06 09:01:00,
2013-03-06 04:06:00,30.2,28.9,30.09,NE,52,0.0,0.0,95,0.00,,OVC055,0.00,VWS V12.08,2013-03-06 09:06:00,
2013-03-06 04:11:00,30.2,28.9,30.09,NE,51,0.0,0.0,95,0.00,,OVC055,0.00,VWS V12.08,2013-03-06 09:11:00,
2013-03-06 04:16:00,30.2,28.7,30.09,NE,51,0.0,0.0,94,0.00,,OVC055,0.00,VWS V12.08,2013-03-06 09:16:00,
2013-03-06 04:21:00,30.2,28.7,30.09,NE,54,0.0,1.0,94,0.00,,OVC055,0.00,VWS V12.08,2013-03-06 09:21:00,
2013-03-06 04:26:00,30.1,28.6,30.09,NE,54,0.0,0.0,94,0.00,,OVC055,0.00,VWS V12.08,2013-03-06 09:26:00,
2013-03-06 04:31:00,30.1,28.3,30.09,NE,54,0.0,0.0,93,0.00,,OVC055,0.00,VWS V12.08,2013-03-06 09:31:00,
2013-03-06 04:36:00,29.9,28.1,30.09,NE,54,0.0,0.0,93,0.00,,OVC055,0.00,VWS V12.08,2013-03-06 09:36:00,
2013-03-06 04:41:00,29.9,28.1,30.09,NE,54,0.0,0.0,93,0.00,,OVC055,0.00,VWS V12.08,2013-03-06 09:41:00,
2013-03-06 04:47:00,29.8,28.0,30.10,NE,54,0.0,0.0,93,0.00,,OVC055,0.00,VWS V12.08,2013-03-06 09:47:00,
2013-03-06 04:52:00,29.8,27.8,30.10,NE,54,0.0,0.0,92,0.00,,OVC055,0.00,VWS V12.08,2013-03-06 09:52:00,
2013-03-06 04:57:00,29.5,27.7,30.10,NE,54,0.0,0.0,93,0.00,,OVC055,0.00,VWS V12.08,2013-03-06 09:57:00,
2013-03-06 05:02:00,29.2,27.4,30.10,NE,54,0.0,2.0,93,0.00,,OVC055,0.00,VWS V12.08,2013-03-06 10:02:00,
2013-03-06 05:07:00,29.0,27.5,30.10,NE,54,0.0,0.0,94,0.00,,OVC055,0.00,VWS V12.08,2013-03-06 10:07:00,
2013-03-06 05:12:00,28.7,27.2,30.10,NE,54,0.0,1.0,94,0.00,,OVC055,0.00,VWS V12.08,2013-03-06 10:12:00,
2013-03-06 05:17:00,28.7,27.5,30.10,NE,54,0.0,0.0,95,0.00,,OVC055,0.00,VWS V12.08,2013-03-06 10:17:00,
2013-03-06 05:22:00,28.6,27.4,30.10,NE,54,0.0,0.0,95,0.00,,OVC055,0.00,VWS V12.08,2013-03-06 10:22:00,
2013-03-06 05:27:00,28.4,27.1,30.10,NE,54,0.0,1.0,95,0.00,,OVC055,0.00,VWS V12.08,2013-03-06 10:27:00,
2013-03-06 05:32:00,28.6,27.4,30.10,WSW,239,0.0,2.0,95,0.00,,OVC055,0.00,VWS V12.08,2013-03-06 10:32:00,
2013-03-06 05:37:00,28.6,27.4,30.10,WSW,237,2.0,2.0,95,0.00,,OVC055,0.00,VWS V12.08,2013-03-06 10:37:00,
2013-03-06 05:42:00,28.4,27.1,30.10,WSW,239,1.0,2.0,95,0.00,,OVC055,0.00,VWS V12.08,2013-03-06 10:42:00,
2013-03-06 05:47:00,28.4,27.1,30.11,WSW,239,0.0,2.0,95,0.00,,OVC055,0.00,VWS V12.08,2013-03-06 10:47:00,
2013-03-06 05:52:00,28.3,27.0,30.11,WSW,237,0.0,0.0,95,0.00,,OVC055,0.00,VWS V12.08,2013-03-06 10:52:00,
2013-03-06 05:57:00,28.1,26.9,30.11,WSW,237,1.0,3.0,95,0.00,,OVC055,0.00,VWS V12.08,2013-03-06 10:57:00,
2013-03-06 06:02:00,28.0,27.0,30.11,WSW,239,0.0,2.0,96,0.00,,OVC055,0.00,VWS V12.08,2013-03-06 11:02:00,
2013-03-06 06:07:00,27.8,26.8,30.11,WSW,239,1.0,2.0,96,0.00,,OVC055,0.00,VWS V12.08,2013-03-06 11:07:00,
2013-03-06 06:12:00,27.8,26.8,30.11,WSW,239,0.0,0.0,96,0.00,,OVC055,0.00,VWS V12.08,2013-03-06 11:12:00,
2013-03-06 06:17:00,27.8,26.8,30.12,WSW,239,0.0,0.0,96,0.00,,OVC055,0.00,VWS V12.08,2013-03-06 11:17:00,
2013-03-06 06:22:00,27.7,26.7,30.12,WSW,240,1.0,2.0,96,0.00,,OVC055,0.00,VWS V12.08,2013-03-06 11:22:00,
2013-03-06 06:27:00,27.7,27.0,30.12,WSW,239,1.0,1.0,97,0.00,,OVC055,0.00,VWS V12.08,2013-03-06 11:27:00,
2013-03-06 06:32:00,27.7,26.7,30.12,WSW,240,0.0,0.0,96,0.00,,OVC055,0.00,VWS V12.08,2013-03-06 11:32:00,
2013-03-06 06:37:00,27.5,26.5,30.12,WSW,240,0.0,1.0,96,0.00,,OVC055,0.00,VWS V12.08,2013-03-06 11:37:00,
2013-03-06 06:42:00,27.4,26.4,30.12,WSW,240,0.0,0.0,96,0.00,,OVC055,0.00,VWS V12.08,2013-03-06 11:42:00,
2013-03-06 06:47:00,27.4,26.7,30.13,WSW,239,0.0,0.0,97,0.00,,OVC055,0.00,VWS V12.08,2013-03-06 11:47:00,
2013-03-06 06:52:00,27.4,26.7,30.13,East,100,0.0,1.0,97,0.00,,OVC055,0.00,VWS V12.08,2013-03-06 11:52:00,
2013-03-06 06:57:00,27.5,26.8,30.13,ENE,68,4.0,5.0,97,0.00,,OVC055,0.00,VWS V12.08,2013-03-06 11:57:00,
2013-03-06 07:02:00,29.2,28.7,30.14,ENE,69,5.0,7.0,98,0.00,,OVC055,0.00,VWS V12.08,2013-03-06 12:02:00,
2013-03-06 07:07:00,30.4,29.1,30.14,ENE,78,7.0,8.0,95,0.00,,OVC055,0.00,VWS V12.08,2013-03-06 12:07:00,
2013-03-06 07:12:00,31.1,29.0,30.14,NE,52,3.0,10.0,92,0.00,,OVC055,0.00,VWS V12.08,2013-03-06 12:12:00,
2013-03-06 07:17:00,31.5,28.9,30.14,East,88,4.0,10.0,90,0.00,,OVC055,0.00,VWS V12.08,2013-03-06 12:17:00,
2013-03-06 07:22:00,31.8,28.7,30.14,ENE,65,4.0,6.0,88,0.00,,OVC055,0.00,VWS V12.08,2013-03-06 12:22:00,
2013-03-06 07:27:00,32.0,28.6,30.14,East,80,3.0,8.0,87,0.00,,OVC055,0.00,VWS V12.08,2013-03-06 12:27:00,
2013-03-06 07:32:00,32.1,28.4,30.14,East,95,6.0,7.0,86,0.00,,OVC055,0.00,VWS V12.08,2013-03-06 12:32:00,
2013-03-06 07:37:00,32.4,28.4,30.14,ENE,72,8.0,11.0,85,0.00,,OVC055,0.00,VWS V12.08,2013-03-06 12:37:00,
2013-03-06 07:42:00,32.6,28.6,30.14,ENE,68,3.0,6.0,85,0.00,,OVC055,0.00,VWS V12.08,2013-03-06 12:42:00,
2013-03-06 07:47:00,32.7,28.4,30.15,ENE,72,5.0,11.0,84,0.00,,OVC055,0.00,VWS V12.08,2013-03-06 12:47:00,
2013-03-06 07:53:00,32.9,28.6,30.15,ENE,64,6.0,7.0,84,0.00,,OVC055,0.00,VWS V12.08,2013-03-06 12:53:00,
2013-03-06 07:58:00,33.0,28.4,30.15,NE,52,5.0,5.0,83,0.00,,OVC055,0.00,VWS V12.08,2013-03-06 12:58:00,
2013-03-06 08:03:00,33.2,28.6,30.16,NE,52,4.0,4.0,83,0.00,,OVC055,0.00,VWS V12.08,2013-03-06 13:03:00,
2013-03-06 08:08:00,33.3,28.4,30.16,ENE,62,1.0,5.0,82,0.00,,OVC055,0.00,VWS V12.08,2013-03-06 13:08:00,
2013-03-06 08:13:00,33.5,28.6,30.16,ENE,69,1.0,6.0,82,0.00,,OVC055,0.00,VWS V12.08,2013-03-06 13:13:00,
2013-03-06 08:18:00,33.6,28.7,30.16,NE,40,2.0,3.0,82,0.00,,OVC055,0.00,VWS V12.08,2013-03-06 13:18:00,
2013-03-06 08:23:00,33.8,28.6,30.16,NE,56,0.0,3.0,81,0.00,,OVC055,0.00,VWS V12.08,2013-03-06 13:23:00,
2013-03-06 08:28:00,33.8,28.6,30.16,NE,45,6.0,10.0,81,0.00,,OVC055,0.00,VWS V12.08,2013-03-06 13:28:00,
2013-03-06 08:33:00,33.6,28.4,30.16,ENE,75,4.0,6.0,81,0.00,,OVC055,0.00,VWS V12.08,2013-03-06 13:33:00,
2013-03-06 08:38:00,33.8,28.9,30.16,ENE,68,2.0,5.0,82,0.00,,OVC055,0.00,VWS V12.08,2013-03-06 13:38:00,
2013-03-06 08:43:00,33.8,28.6,30.17,ENE,72,3.0,7.0,81,0.00,,OVC055,0.00,VWS V12.08,2013-03-06 13:43:00,
2013-03-06 08:48:00,33.8,28.6,30.17,East,82,9.0,11.0,81,0.00,,OVC055,0.00,VWS V12.08,2013-03-06 13:48:00,
2013-03-06 08:53:00,33.9,28.7,30.17,East,83,6.0,6.0,81,0.00,,OVC055,0.00,VWS V12.08,2013-03-06 13:53:00,
2013-03-06 08:58:00,34.2,28.7,30.17,ENE,68,1.0,5.0,80,0.00,,OVC055,0.00,VWS V12.08,2013-03-06 13:58:00,
2013-03-06 09:03:00,34.5,28.7,30.17,East,83,5.0,7.0,79,0.00,,OVC055,0.00,VWS V12.08,2013-03-06 14:03:00,
2013-03-06 09:08:00,34.5,28.7,30.17,ENE,59,3.0,9.0,79,0.00,,OVC055,0.00,VWS V12.08,2013-03-06 14:08:00,
2013-03-06 09:13:00,34.6,28.5,30.17,NE,48,0.0,7.0,78,0.00,,OVC055,0.00,VWS V12.08,2013-03-06 14:13:00,
2013-03-06 09:18:00,34.9,28.4,30.17,ENE,66,5.0,6.0,77,0.00,,OVC055,0.00,VWS V12.08,2013-03-06 14:18:00,
2013-03-06 09:23:00,35.2,28.4,30.17,East,82,3.0,8.0,76,0.00,,OVC055,0.00,VWS V12.08,2013-03-06 14:23:00,
2013-03-06 09:28:00,35.3,28.2,30.16,ENE,72,2.0,8.0,75,0.00,,OVC055,0.00,VWS V12.08,2013-03-06 14:28:00,
2013-03-06 09:33:00,35.6,28.5,30.16,NE,38,3.0,6.0,75,0.00,,OVC055,0.00,VWS V12.08,2013-03-06 14:33:00,
2013-03-06 09:38:00,35.9,28.4,30.16,ENE,64,1.0,3.0,74,0.00,,OVC055,0.00,VWS V12.08,2013-03-06 14:38:00,
2013-03-06 09:43:00,36.9,29.1,30.17,NE,47,6.0,6.0,73,0.00,,OVC055,0.00,VWS V12.08,2013-03-06 14:43:00,
2013-03-06 09:50:00,37.1,27.9,30.17,NE,45,4.0,10.0,69,0.00,,OVC055,0.00,VWS V12.08,2013-03-06 14:50:00,
2013-03-06 10:00:00,37.9,28.6,30.17,ENE,68,5.0,13.0,69,0.00,,OVC055,0.00,VWS V12.08,2013-03-06 15:00:00,
2013-03-06 10:10:00,36.6,27.8,30.17,NE,45,6.0,14.0,70,0.00,,OVC055,0.00,VWS V12.08,2013-03-06 15:10:00,
2013-03-06 10:15:00,35.8,27.0,30.17,North,0,3.0,9.0,70,0.00,,OVC041,0.00,VWS V12.08,2013-03-06 15:15:00,
2013-03-06 10:20:00,35.8,27.0,30.17,NNE,20,3.0,7.0,70,0.00,,OVC041,0.00,VWS V12.08,2013-03-06 15:20:00,
2013-03-06 10:25:00,35.9,27.1,30.17,NE,52,8.0,12.0,70,0.00,,OVC041,0.00,VWS V12.08,2013-03-06 15:25:00,
2013-03-06 10:30:00,35.8,26.6,30.17,NE,56,5.0,12.0,69,0.00,,OVC041,0.00,VWS V12.08,2013-03-06 15:30:00,
2013-03-06 10:35:00,35.8,26.3,30.17,North,0,8.0,12.0,68,0.00,,OVC041,0.00,VWS V12.08,2013-03-06 15:35:00,
2013-03-06 10:40:00,35.8,26.3,30.17,NE,47,7.0,7.0,68,0.00,,OVC039,0.00,VWS V12.08,2013-03-06 15:40:00,
2013-03-06 10:45:00,35.8,25.6,30.17,ENE,71,5.0,12.0,66,0.00,,OVC039,0.00,VWS V12.08,2013-03-06 15:45:00,
2013-03-06 10:50:00,35.8,25.6,30.17,East,79,8.0,16.0,66,0.00,,OVC039,0.00,VWS V12.08,2013-03-06 15:50:00,
2013-03-06 10:55:00,35.6,25.4,30.17,ENE,61,11.0,16.0,66,0.00,,OVC039,0.00,VWS V12.08,2013-03-06 15:55:00,
2013-03-06 11:00:00,35.6,25.4,30.17,East,79,12.0,17.0,66,0.00,,OVC034,0.00,VWS V12.08,2013-03-06 16:00:00,
2013-03-06 11:05:00,35.8,25.9,30.17,ENE,64,3.0,7.0,67,0.00,,OVC034,0.00,VWS V12.08,2013-03-06 16:05:00,
2013-03-06 11:10:00,35.9,25.7,30.17,NE,52,8.0,9.0,66,0.00,,OVC034,0.00,VWS V12.08,2013-03-06 16:10:00,
2013-03-06 11:15:00,36.0,25.8,30.17,North,7,5.0,12.0,66,0.00,,OVC034,0.00,VWS V12.08,2013-03-06 16:15:00,
2013-03-06 11:20:00,37.1,27.2,30.17,East,79,6.0,6.0,67,0.00,,OVC034,0.00,VWS V12.08,2013-03-06 16:20:00,
2013-03-06 11:26:00,37.3,26.3,30.17,NE,45,6.0,13.0,64,0.00,,OVC034,0.00,VWS V12.08,2013-03-06 16:26:00,
2013-03-06 11:31:00,36.5,25.9,30.17,ENE,58,8.0,11.0,65,0.00,,OVC034,0.00,VWS V12.08,2013-03-06 16:31:00,
2013-03-06 11:36:00,35.9,26.0,30.17,East,90,5.0,11.0,67,0.00,,OVC034,0.00,VWS V12.08,2013-03-06 16:36:00,
2013-03-06 11:41:00,35.5,26.0,30.17,ENE,78,11.0,13.0,68,0.00,,OVC034,0.00,VWS V12.08,2013-03-06 16:41:00,
2013-03-06 11:46:00,35.2,26.1,30.17,North,350,5.0,17.0,69,0.00,,OVC034,0.00,VWS V12.08,2013-03-06 16:46:00,
2013-03-06 11:51:00,35.2,26.1,30.17,NE,51,11.0,13.0,69,0.00,,OVC034,0.00,VWS V12.08,2013-03-06 16:51:00,
2013-03-06 11:56:00,35.2,26.4,30.17,NE,54,6.0,12.0,70,0.00,,OVC034,0.00,VWS V12.08,2013-03-06 16:56:00,
2013-03-06 12:01:00,35.0,25.9,30.17,ENE,62,3.0,9.0,69,0.00,,OVC049,0.00,VWS V12.08,2013-03-06 17:01:00,
2013-03-06 12:06:00,35.0,26.6,30.17,NE,55,9.0,12.0,71,0.00,,OVC049,0.00,VWS V12.08,2013-03-06 17:06:00,
2013-03-06 12:11:00,34.6,26.2,30.17,NE,54,8.0,14.0,71,0.00,,OVC049,0.00,VWS V12.08,2013-03-06 17:11:00,
2013-03-06 12:16:00,34.6,26.2,30.17,NE,56,3.0,7.0,71,0.00,,OVC049,0.00,VWS V12.08,2013-03-06 17:16:00,
2013-03-06 12:21:00,34.6,26.2,30.17,NNE,25,2.0,5.0,71,0.00,,OVC049,0.00,VWS V12.08,2013-03-06 17:21:00,
2013-03-06 12:26:00,34.6,26.2,30.17,ENE,78,6.0,11.0,71,0.00,,OVC049,0.00,VWS V12.08,2013-03-06 17:26:00,
2013-03-06 12:31:00,34.6,26.5,30.17,ENE,58,7.0,11.0,72,0.00,,OVC049,0.00,VWS V12.08,2013-03-06 17:31:00,
2013-03-06 12:36:00,34.9,26.5,30.17,ENE,59,2.0,3.0,71,0.00,,OVC049,0.00,VWS V12.08,2013-03-06 17:36:00,
2013-03-06 12:41:00,36.0,26.8,30.17,ENE,75,6.0,7.0,69,0.00,,OVC049,0.00,VWS V12.08,2013-03-06 17:41:00,
2013-03-06 12:46:00,36.9,26.2,30.16,East,79,8.0,11.0,65,0.00,,OVC049,0.00,VWS V12.08,2013-03-06 17:46:00,
2013-03-06 12:51:00,37.1,25.7,30.16,NE,54,5.0,7.0,63,0.00,,OVC049,0.00,VWS V12.08,2013-03-06 17:51:00,
2013-03-06 12:56:00,37.2,25.4,30.16,NE,49,6.0,11.0,62,0.00,,OVC049,0.00,VWS V12.08,2013-03-06 17:56:00,
2013-03-06 13:01:00,37.3,23.1,30.16,East,85,5.0,7.0,56,0.00,,OVC049,0.00,VWS V12.08,2013-03-06 18:01:00,
2013-03-06 13:06:00,37.2,22.1,30.16,East,100,6.0,8.0,54,0.00,,OVC049,0.00,VWS V12.08,2013-03-06 18:06:00,
2013-03-06 13:11:00,36.6,22.4,30.16,SE,130,6.0,7.0,56,0.00,,OVC049,0.00,VWS V12.08,2013-03-06 18:11:00,
2013-03-06 13:16:00,36.6,22.4,30.15,East,96,5.0,10.0,56,0.00,,OVC049,0.00,VWS V12.08,2013-03-06 18:16:00,
2013-03-06 13:21:00,36.9,23.1,30.15,ENE,73,7.0,8.0,57,0.00,,OVC049,0.00,VWS V12.08,2013-03-06 18:21:00,
2013-03-06 13:26:00,37.1,22.9,30.15,East,92,5.0,7.0,56,0.00,,OVC049,0.00,VWS V12.08,2013-03-06 18:26:00,
2013-03-06 13:31:00,37.2,23.0,30.15,ENE,65,6.0,6.0,56,0.00,,OVC049,0.00,VWS V12.08,2013-03-06 18:31:00,
2013-03-06 13:36:00,37.5,23.7,30.15,ENE,73,3.0,6.0,57,0.00,,OVC049,0.00,VWS V12.08,2013-03-06 18:36:00,
2013-03-06 13:41:00,37.3,23.5,30.15,ENE,62,7.0,13.0,57,0.00,,OVC055,0.00,VWS V12.08,2013-03-06 18:41:00,
2013-03-06 13:46:00,36.8,25.0,30.14,NE,41,3.0,6.0,62,0.00,,OVC055,0.00,VWS V12.08,2013-03-06 18:46:00,
2013-03-06 13:51:00,36.9,25.5,30.14,East,80,3.0,10.0,63,0.00,,OVC055,0.00,VWS V12.08,2013-03-06 18:51:00,
2013-03-06 13:56:00,36.9,25.5,30.14,NE,45,7.0,16.0,63,0.00,,OVC055,0.00,VWS V12.08,2013-03-06 18:56:00,
2013-03-06 14:01:00,36.8,25.4,30.15,NE,48,6.0,12.0,63,0.00,,OVC055,0.00,VWS V12.08,2013-03-06 19:01:00,
2013-03-06 14:06:00,36.6,25.6,30.15,ENE,72,8.0,11.0,64,0.00,,OVC055,0.00,VWS V12.08,2013-03-06 19:06:00,
2013-03-06 14:11:00,36.3,25.7,30.15,ENE,78,8.0,9.0,65,0.00,,OVC055,0.00,VWS V12.08,2013-03-06 19:11:00,
2013-03-06 14:16:00,36.2,25.6,30.15,ENE,73,7.0,7.0,65,0.00,,OVC055,0.00,VWS V12.08,2013-03-06 19:16:00,
2013-03-06 14:21:00,36.2,26.0,30.15,ENE,68,8.0,8.0,66,0.00,,OVC055,0.00,VWS V12.08,2013-03-06 19:21:00,
2013-03-06 14:26:00,36.2,25.2,30.15,NE,48,2.0,5.0,64,0.00,,OVC055,0.00,VWS V12.08,2013-03-06 19:26:00,
2013-03-06 14:31:00,36.2,25.2,30.15,NE,45,2.0,11.0,64,0.00,,OVC055,0.00,VWS V12.08,2013-03-06 19:31:00,
2013-03-06 14:36:00,36.3,25.3,30.15,NE,54,5.0,6.0,64,0.00,,OVC055,0.00,VWS V12.08,2013-03-06 19:36:00,
2013-03-06 14:41:00,36.6,25.6,30.15,East,93,6.0,11.0,64,0.00,,OVC055,0.00,VWS V12.08,2013-03-06 19:41:00,
2013-03-06 14:46:00,36.5,25.9,30.15,ENE,76,6.0,7.0,65,0.00,,OVC055,0.00,VWS V12.08,2013-03-06 19:46:00,
2013-03-06 14:51:00,36.3,25.7,30.15,NNE,28,5.0,8.0,65,0.00,,OVC055,0.00,VWS V12.08,2013-03-06 19:51:00,
2013-03-06 14:56:00,36.2,26.3,30.15,ENE,78,3.0,5.0,67,0.00,,OVC055,0.00,VWS V12.08,2013-03-06 19:56:00,
2013-03-06 15:01:00,36.0,26.1,30.16,ENE,68,4.0,11.0,67,0.00,,OVC055,0.00,VWS V12.08,2013-03-06 20:01:00,
2013-03-06 15:06:00,36.0,26.1,30.16,ENE,62,2.0,8.0,67,0.00,,OVC055,0.00,VWS V12.08,2013-03-06 20:06:00,
2013-03-06 15:11:00,36.0,26.5,30.16,ENE,69,10.0,10.0,68,0.00,,OVC055,0.00,VWS V12.08,2013-03-06 20:11:00,
2013-03-06 15:16:00,35.9,26.4,30.16,NNE,31,6.0,12.0,68,0.00,,OVC055,0.00,VWS V12.08,2013-03-06 20:16:00,
2013-03-06 15:21:00,35.8,26.6,30.16,ENE,64,6.0,8.0,69,0.00,,OVC055,0.00,VWS V12.08,2013-03-06 20:21:00,
2013-03-06 15:26:00,35.8,27.0,30.16,NNE,32,2.0,11.0,70,0.00,,OVC055,0.00,VWS V12.08,2013-03-06 20:26:00,
2013-03-06 15:31:00,35.6,26.8,30.16,ENE,78,4.0,6.0,70,0.00,,OVC055,0.00,VWS V12.08,2013-03-06 20:31:00,
2013-03-06 15:36:00,35.5,26.7,30.16,ENE,65,5.0,5.0,70,0.00,,OVC055,0.00,VWS V12.08,2013-03-06 20:36:00,
2013-03-06 15:41:00,35.5,26.7,30.16,NE,55,3.0,11.0,70,0.00,,OVC055,0.00,VWS V12.08,2013-03-06 20:41:00,
2013-03-06 15:46:00,35.5,27.0,30.16,NE,40,6.0,8.0,71,0.00,,OVC055,0.00,VWS V12.08,2013-03-06 20:46:00,
2013-03-06 15:51:00,35.5,27.0,30.16,ENE,72,2.0,5.0,71,0.00,,OVC055,0.00,VWS V12.08,2013-03-06 20:51:00,
2013-03-06 15:56:00,35.5,26.7,30.16,East,85,2.0,4.0,70,0.00,,OVC055,0.00,VWS V12.08,2013-03-06 20:56:00,
2013-03-06 16:01:00,35.5,26.7,30.16,ENE,72,1.0,3.0,70,0.00,,OVC055,0.00,VWS V12.08,2013-03-06 21:01:00,
2013-03-06 16:06:00,35.5,26.7,30.16,NE,44,1.0,3.0,70,0.00,,OVC055,0.00,VWS V12.08,2013-03-06 21:06:00,
2013-03-06 16:11:00,35.5,26.4,30.16,NNE,31,4.0,6.0,69,0.00,,OVC055,0.00,VWS V12.08,2013-03-06 21:11:00,
2013-03-06 16:16:00,35.5,26.0,30.16,NNE,31,2.0,7.0,68,0.00,,OVC055,0.00,VWS V12.08,2013-03-06 21:16:00,
2013-03-06 16:21:00,35.6,26.5,30.16,NE,42,7.0,8.0,69,0.00,,OVC055,0.00,VWS V12.08,2013-03-06 21:21:00,
2013-03-06 16:26:00,35.5,26.0,30.16,ENE,65,4.0,8.0,68,0.00,,OVC055,0.00,VWS V12.08,2013-03-06 21:26:00,
2013-03-06 16:31:00,35.5,26.7,30.16,East,79,0.0,5.0,70,0.00,,OVC055,0.00,VWS V12.08,2013-03-06 21:31:00,
2013-03-06 16:36:00,35.5,26.7,30.16,ENE,69,1.0,4.0,70,0.00,,OVC055,0.00,VWS V12.08,2013-03-06 21:36:00,
2013-03-06 16:41:00,35.3,26.2,30.16,NE,44,5.0,6.0,69,0.00,,OVC060,0.00,VWS V12.08,2013-03-06 21:41:00,
2013-03-06 16:47:00,35.3,25.5,30.16,NNE,20,6.0,7.0,67,0.00,,OVC060,0.00,VWS V12.08,2013-03-06 21:47:00,
2013-03-06 16:52:00,35.3,25.5,30.16,NE,34,2.0,10.0,67,0.00,,OVC060,0.00,VWS V12.08,2013-03-06 21:52:00,
2013-03-06 16:57:00,35.2,25.4,30.16,East,100,7.0,8.0,67,0.00,,OVC060,0.00,VWS V12.08,2013-03-06 21:57:00,
2013-03-06 17:02:00,35.0,25.5,30.16,NE,38,1.0,7.0,68,0.00,,OVC060,0.00,VWS V12.08,2013-03-06 22:02:00,
2013-03-06 17:07:00,34.9,25.4,30.16,East,80,10.0,10.0,68,0.00,,OVC060,0.00,VWS V12.08,2013-03-06 22:07:00,
2013-03-06 17:12:00,34.8,26.0,30.16,NE,37,8.0,8.0,70,0.00,,OVC060,0.00,VWS V12.08,2013-03-06 22:12:00,
2013-03-06 17:17:00,34.6,25.8,30.16,ENE,61,3.0,13.0,70,0.00,,OVC060,0.00,VWS V12.08,2013-03-06 22:17:00,
2013-03-06 17:22:00,34.5,26.1,30.16,NE,40,12.0,12.0,71,0.00,,OVC060,0.00,VWS V12.08,2013-03-06 22:22:00,
2013-03-06 17:27:00,34.3,25.9,30.16,NNE,32,6.0,7.0,71,0.00,,OVC060,0.00,VWS V12.08,2013-03-06 22:27:00,
2013-03-06 17:32:00,34.0,25.9,30.17,ENE,61,2.0,2.0,72,0.00,,OVC060,0.00,VWS V12.08,2013-03-06 22:32:00,
2013-03-06 17:37:00,33.9,26.2,30.17,ENE,61,6.0,8.0,73,0.00,,OVC060,0.00,VWS V12.08,2013-03-06 22:37:00,
2013-03-06 17:42:00,33.8,26.4,30.17,NE,56,2.0,6.0,74,0.00,,OVC055,0.00,VWS V12.08,2013-03-06 22:42:00,
2013-03-06 17:47:00,33.5,26.1,30.17,NE,42,2.0,7.0,74,0.00,,OVC055,0.00,VWS V12.08,2013-03-06 22:47:00,
2013-03-06 17:52:00,33.3,26.2,30.17,ENE,72,3.0,7.0,75,0.00,,OVC055,0.00,VWS V12.08,2013-03-06 22:52:00,
2013-03-06 17:57:00,33.3,26.2,30.17,NE,45,1.0,7.0,75,0.00,,OVC055,0.00,VWS V12.08,2013-03-06 22:57:00,
2013-03-06 18:02:00,33.2,26.1,30.18,NNW,332,2.0,3.0,75,0.00,,OVC055,0.00,VWS V12.08,2013-03-06 23:02:00,
2013-03-06 18:07:00,33.0,26.0,30.18,East,82,3.0,6.0,75,0.00,,OVC055,0.00,VWS V12.08,2013-03-06 23:07:00,
2013-03-06 18:12:00,33.0,26.0,30.18,NE,51,4.0,7.0,75,0.00,,OVC055,0.00,VWS V12.08,2013-03-06 23:12:00,
2013-03-06 18:17:00,33.0,26.0,30.18,NE,41,1.0,3.0,75,0.00,,OVC055,0.00,VWS V12.08,2013-03-06 23:17:00,
2013-03-06 18:22:00,32.9,25.9,30.18,NE,55,2.0,9.0,75,0.00,,OVC055,0.00,VWS V12.08,2013-03-06 23:22:00,
2013-03-06 18:27:00,32.7,25.7,30.18,ENE,58,1.0,3.0,75,0.00,,OVC055,0.00,VWS V12.08,2013-03-06 23:27:00,
2013-03-06 18:32:00,32.7,26.0,30.18,ENE,61,1.0,3.0,76,0.00,,OVC055,0.00,VWS V12.08,2013-03-06 23:32:00,
2013-03-06 18:37:00,32.6,25.9,30.18,ENE,61,1.0,5.0,76,0.00,,OVC055,0.00,VWS V12.08,2013-03-06 23:37:00,
2013-03-06 18:42:00,32.6,25.9,30.18,ENE,78,7.0,7.0,76,0.00,,,0.00,VWS V12.08,2013-03-06 23:42:00,
2013-03-06 18:47:00,32.4,25.7,30.18,ENE,73,3.0,3.0,76,0.00,,,0.00,VWS V12.08,2013-03-06 23:47:00,
2013-03-06 18:52:00,32.3,25.6,30.18,ENE,69,2.0,5.0,76,0.00,,,0.00,VWS V12.08,2013-03-06 23:52:00,
2013-03-06 18:57:00,32.3,25.6,30.18,ENE,72,4.0,6.0,76,0.00,,,0.00,VWS V12.08,2013-03-06 23:57:00,
2013-03-06 19:02:00,32.1,25.4,30.19,NNE,31,2.0,6.0,76,0.00,,,0.00,VWS V12.08,2013-03-07 00:02:00,
2013-03-06 19:07:00,32.1,25.4,30.19,NE,49,4.0,5.0,76,0.00,,,0.00,VWS V12.08,2013-03-07 00:07:00,
2013-03-06 19:12:00,32.1,25.4,30.19,NNE,31,2.0,6.0,76,0.00,,,0.00,VWS V12.08,2013-03-07 00:12:00,
2013-03-06 19:17:00,32.0,25.3,30.19,ENE,59,1.0,8.0,76,0.00,,,0.00,VWS V12.08,2013-03-07 00:17:00,
2013-03-06 19:22:00,31.8,25.4,30.19,North,11,1.0,5.0,77,0.00,,OVC055,0.00,VWS V12.08,2013-03-07 00:22:00,
2013-03-06 19:27:00,31.7,25.3,30.19,NE,51,1.0,3.0,77,0.00,,OVC055,0.00,VWS V12.08,2013-03-07 00:27:00,
2013-03-06 19:32:00,31.5,25.4,30.20,NE,38,2.0,4.0,78,0.00,,OVC055,0.00,VWS V12.08,2013-03-07 00:32:00,
2013-03-06 19:37:00,31.4,25.6,30.20,NE,45,2.0,5.0,79,0.00,,OVC055,0.00,VWS V12.08,2013-03-07 00:37:00,
2013-03-06 19:42:00,31.4,25.6,30.20,NNE,23,2.0,4.0,79,0.00,,OVC029,0.00,VWS V12.08,2013-03-07 00:42:00,
2013-03-06 19:47:00,31.2,25.8,30.19,NE,52,1.0,4.0,80,0.00,,OVC029,0.00,VWS V12.08,2013-03-07 00:47:00,
2013-03-06 19:52:00,31.2,25.8,30.19,NE,44,0.0,3.0,80,0.00,,OVC029,0.00,VWS V12.08,2013-03-07 00:52:00,
2013-03-06 19:57:00,31.1,26.0,30.19,ENE,59,1.0,5.0,81,0.00,,OVC029,0.00,VWS V12.08,2013-03-07 00:57:00,
2013-03-06 20:03:00,31.1,26.0,30.19,ENE,59,0.0,1.0,81,0.00,,SCT035,0.00,VWS V12.08,2013-03-07 01:03:00,
2013-03-06 20:08:00,30.9,25.8,30.19,ENE,61,0.0,0.0,81,0.00,,SCT035,0.00,VWS V12.08,2013-03-07 01:08:00,
2013-03-06 20:13:00,30.8,25.7,30.19,NE,47,1.0,2.0,81,0.00,,SCT035,0.00,VWS V12.08,2013-03-07 01:13:00,
2013-03-06 20:18:00,30.8,26.0,30.19,NE,47,0.0,0.0,82,0.00,,SCT035,0.00,VWS V12.08,2013-03-07 01:18:00,
2013-03-06 20:23:00,30.7,25.6,30.19,East,82,0.0,0.0,81,0.00,,SCT035,0.00,VWS V12.08,2013-03-07 01:23:00,
2013-03-06 20:28:00,30.7,25.9,30.19,East,82,0.0,3.0,82,0.00,,SCT035,0.00,VWS V12.08,2013-03-07 01:28:00,
2013-03-06 20:33:00,30.5,25.7,30.19,East,82,0.0,1.0,82,0.00,,SCT035,0.00,VWS V12.08,2013-03-07 01:33:00,
2013-03-06 20:38:00,30.4,25.3,30.19,ENE,65,0.0,3.0,81,0.00,,SCT035,0.00,VWS V12.08,2013-03-07 01:38:00,
2013-03-06 20:43:00,30.2,24.8,30.18,ENE,69,3.0,3.0,80,0.00,,BKN039,0.00,VWS V12.08,2013-03-07 01:43:00,
2013-03-06 20:48:00,30.1,24.7,30.18,NE,47,0.0,3.0,80,0.00,,BKN039,0.00,VWS V12.08,2013-03-07 01:48:00,
2013-03-06 20:53:00,29.9,24.2,30.18,NE,48,3.0,6.0,79,0.00,,BKN039,0.00,VWS V12.08,2013-03-07 01:53:00,
2013-03-06 20:58:00,29.8,23.5,30.18,ENE,58,2.0,3.0,77,0.00,,BKN039,0.00,VWS V12.08,2013-03-07 01:58:00,
2013-03-06 21:03:00,29.6,23.3,30.18,NE,48,3.0,3.0,77,0.00,,BKN039,0.00,VWS V12.08,2013-03-07 02:03:00,
2013-03-06 21:08:00,29.6,22.7,30.18,NE,48,0.0,1.0,75,0.00,,BKN039,0.00,VWS V12.08,2013-03-07 02:08:00,
2013-03-06 21:13:00,29.5,22.6,30.18,NE,51,1.0,1.0,75,0.00,,BKN039,0.00,VWS V12.08,2013-03-07 02:13:00,
2013-03-06 21:18:00,29.3,22.7,30.18,NE,51,0.0,0.0,76,0.00,,BKN039,0.00,VWS V12.08,2013-03-07 02:18:00,
2013-03-06 21:23:00,29.3,22.7,30.18,NE,51,0.0,0.0,76,0.00,,BKN039,0.00,VWS V12.08,2013-03-07 02:23:00,
2013-03-06 21:28:00,29.2,22.9,30.17,NE,51,0.0,0.0,77,0.00,,BKN039,0.00,VWS V12.08,2013-03-07 02:28:00,
2013-03-06 21:33:00,29.2,23.2,30.17,NE,51,0.0,1.0,78,0.00,,BKN039,0.00,VWS V12.08,2013-03-07 02:33:00,
2013-03-06 21:38:00,29.0,23.0,30.17,NE,54,0.0,0.0,78,0.00,,BKN039,0.00,VWS V12.08,2013-03-07 02:38:00,
2013-03-06 21:43:00,28.9,22.9,30.18,NE,54,1.0,1.0,78,0.00,,OVC047,0.00,VWS V12.08,2013-03-07 02:43:00,
2013-03-06 21:48:00,28.9,22.9,30.18,ENE,71,4.0,7.0,78,0.00,,OVC047,0.00,VWS V12.08,2013-03-07 02:48:00,
2013-03-06 21:53:00,29.0,23.0,30.18,ENE,73,2.0,2.0,78,0.00,,OVC047,0.00,VWS V12.08,2013-03-07 02:53:00,
2013-03-06 21:58:00,28.9,22.9,30.17,NE,49,3.0,3.0,78,0.00,,OVC047,0.00,VWS V12.08,2013-03-07 02:58:00,
2013-03-06 22:03:00,28.7,22.7,30.17,ENE,78,3.0,4.0,78,0.00,,OVC047,0.00,VWS V12.08,2013-03-07 03:03:00,
2013-03-06 22:08:00,28.7,22.7,30.17,ENE,75,1.0,3.0,78,0.00,,OVC047,0.00,VWS V12.08,2013-03-07 03:08:00,
2013-03-06 22:13:00,28.7,22.7,30.17,ENE,75,2.0,2.0,78,0.00,,OVC047,0.00,VWS V12.08,2013-03-07 03:13:00,
2013-03-06 22:18:00,28.7,22.7,30.17,ENE,75,0.0,1.0,78,0.00,,OVC047,0.00,VWS V12.08,2013-03-07 03:18:00,
2013-03-06 22:23:00,28.6,22.6,30.17,ENE,75,0.0,0.0,78,0.00,,OVC047,0.00,VWS V12.08,2013-03-07 03:23:00,
2013-03-06 22:28:00,28.4,22.4,30.17,ENE,75,0.0,0.0,78,0.00,,OVC047,0.00,VWS V12.08,2013-03-07 03:28:00,
2013-03-06 22:33:00,28.3,22.6,30.17,ENE,75,0.0,0.0,79,0.00,,OVC047,0.00,VWS V12.08,2013-03-07 03:33:00,
2013-03-06 22:38:00,28.1,22.4,30.17,ENE,75,0.0,0.0,79,0.00,,OVC047,0.00,VWS V12.08,2013-03-07 03:38:00,
2013-03-06 22:43:00,27.8,22.7,30.17,ENE,75,0.0,0.0,81,0.00,,OVC044,0.00,VWS V12.08,2013-03-07 03:43:00,
2013-03-06 22:48:00,27.7,22.6,30.17,ENE,75,0.0,0.0,81,0.00,,OVC044,0.00,VWS V12.08,2013-03-07 03:48:00,
2013-03-06 22:53:00,27.5,22.5,30.17,ENE,75,0.0,0.0,81,0.00,,OVC044,0.00,VWS V12.08,2013-03-07 03:53:00,
2013-03-06 22:58:00,27.4,22.6,30.17,ENE,75,0.0,0.0,82,0.00,,OVC044,0.00,VWS V12.08,2013-03-07 03:58:00,
2013-03-06 23:03:00,27.4,22.6,30.17,ENE,75,0.0,0.0,82,0.00,,OVC044,0.00,VWS V12.08,2013-03-07 04:03:00,
2013-03-06 23:08:00,27.7,22.6,30.17,ENE,75,0.0,0.0,81,0.00,,OVC044,0.00,VWS V12.08,2013-03-07 04:08:00,
2013-03-06 23:13:00,28.0,22.6,30.18,ENE,75,0.0,1.0,80,0.00,,OVC044,0.00,VWS V12.08,2013-03-07 04:13:00,
2013-03-06 23:18:00,28.1,22.7,30.18,ENE,75,0.0,0.0,80,0.00,,OVC044,0.00,VWS V12.08,2013-03-07 04:18:00,
2013-03-06 23:23:00,28.1,23.0,30.18,ENE,75,0.0,2.0,81,0.00,,OVC044,0.00,VWS V12.08,2013-03-07 04:23:00,
2013-03-06 23:28:00,28.4,23.0,30.18,NE,56,0.0,5.0,80,0.00,,OVC044,0.00,VWS V12.08,2013-03-07 04:28:00,
2013-03-06 23:33:00,28.6,22.6,30.18,NE,56,0.0,0.0,78,0.00,,OVC044,0.00,VWS V12.08,2013-03-07 04:33:00,
2013-03-06 23:38:00,28.7,22.4,30.18,NE,56,0.0,0.0,77,0.00,,OVC044,0.00,VWS V12.08,2013-03-07 04:38:00,
2013-03-06 23:43:00,28.7,22.4,30.17,NE,56,0.0,0.0,77,0.00,,OVC040,0.00,VWS V12.08,2013-03-07 04:43:00,
2013-03-06 23:49:00,28.9,22.3,30.17,NE,54,2.0,3.0,76,0.00,,OVC040,0.00,VWS V12.08,2013-03-07 04:49:00,
2013-03-06 23:54:00,28.9,22.6,30.17,NE,54,0.0,0.0,77,0.00,,OVC040,0.00,VWS V12.08,2013-03-07 04:54:00,
2013-03-06 23:59:00,28.9,22.3,30.17,NE,54,0.0,0.0,76,0.00,,OVC040,0.00,VWS V12.08,2013-03-07 04:59:00,